Time,TemperatureF,DewpointF,PressureIn,WindDirection,WindDirectionDegrees,WindSpeedMPH,WindSpeedGustMPH,Humidity,HourlyPrecipIn,Conditions,Clouds,dailyrainin,SoftwareType,DateUTC
2013-07-09 00:14:00,78.8,72.0,30.04,SE,140,0.0,1.0,79,0.00,,,0.00,weatherlink.com 1.10,2013-07-09 04:14:00,
2013-07-09 00:29:00,78.2,72.0,30.04,SE,140,1.0,1.0,80,0.00,,,0.00,weatherlink.com 1.10,2013-07-09 04:29:00,
2013-07-09 00:44:00,78.2,72.0,30.04,SE,141,0.0,2.0,80,0.00,,,0.00,weatherlink.com 1.10,2013-07-09 04:44:00,
2013-07-09 00:59:00,78.1,72.0,30.04,SE,141,1.0,2.0,80,0.00,,,0.00,weatherlink.com 1.10,2013-07-09 04:59:00,
2013-07-09 01:14:00,78.0,71.0,30.04,SE,141,0.0,1.0,80,0.00,,,0.00,weatherlink.com 1.10,2013-07-09 05:14:00,
2013-07-09 01:29:00,77.8,71.0,30.03,SSE,156,0.0,3.0,80,0.00,,,0.00,weatherlink.com 1.10,2013-07-09 05:29:00,
2013-07-09 01:44:00,77.6,71.0,30.03,SSE,156,0.0,2.0,81,0.00,,,0.00,weatherlink.com 1.10,2013-07-09 05:44:00,
2013-07-09 01:59:00,77.5,71.0,30.03,SSE,156,0.0,2.0,81,0.00,,,0.00,weatherlink.com 1.10,2013-07-09 05:59:00,
2013-07-09 02:14:00,77.1,71.0,30.02,SSE,156,0.0,2.0,82,0.00,,,0.00,weatherlink.com 1.10,2013-07-09 06:14:00,
2013-07-09 02:29:00,76.7,71.0,30.02,SSE,156,1.0,3.0,83,0.00,,,0.00,weatherlink.com 1.10,2013-07-09 06:29:00,
2013-07-09 02:44:00,76.6,71.0,30.02,ESE,119,0.0,3.0,83,0.00,,,0.00,weatherlink.com 1.10,2013-07-09 06:44:00,
2013-07-09 02:59:00,76.5,71.0,30.01,SE,134,0.0,2.0,83,0.00,,,0.00,weatherlink.com 1.10,2013-07-09 06:59:00,
2013-07-09 03:14:00,76.3,71.0,30.01,SSE,165,0.0,3.0,83,0.00,,,0.00,weatherlink.com 1.10,2013-07-09 07:14:00,
2013-07-09 03:29:00,76.3,71.0,30.02,SSE,165,1.0,2.0,83,0.00,,,0.00,weatherlink.com 1.10,2013-07-09 07:29:00,
2013-07-09 03:44:00,76.3,71.0,30.02,SSE,165,0.0,2.0,83,0.00,,,0.00,weatherlink.com 1.10,2013-07-09 07:44:00,
2013-07-09 03:59:00,76.2,71.0,30.02,SSE,165,1.0,2.0,83,0.00,,,0.00,weatherlink.com 1.10,2013-07-09 07:59:00,
2013-07-09 04:14:00,76.1,71.0,30.02,SE,130,1.0,3.0,84,0.00,,,0.00,weatherlink.com 1.10,2013-07-09 08:14:00,
2013-07-09 04:29:00,76.0,71.0,30.02,SE,130,0.0,2.0,84,0.00,,,0.00,weatherlink.com 1.10,2013-07-09 08:29:00,
2013-07-09 04:44:00,76.0,71.0,30.02,SE,130,0.0,2.0,84,0.00,,,0.00,weatherlink.com 1.10,2013-07-09 08:44:00,
2013-07-09 04:59:00,76.1,71.0,30.02,SE,130,0.0,1.0,84,0.00,,,0.00,weatherlink.com 1.10,2013-07-09 08:59:00,
2013-07-09 05:14:00,76.0,71.0,30.02,SE,130,0.0,2.0,84,0.00,,,0.00,weatherlink.com 1.10,2013-07-09 09:14:00,
2013-07-09 05:29:00,75.7,71.0,30.02,SE,136,1.0,2.0,85,0.00,,,0.00,weatherlink.com 1.10,2013-07-09 09:29:00,
2013-07-09 05:44:00,76.0,71.0,30.02,SE,126,0.0,4.0,84,0.00,,,0.00,weatherlink.com 1.10,2013-07-09 09:44:00,
2013-07-09 05:59:00,76.0,71.0,30.03,SE,132,0.0,3.0,84,0.00,,,0.00,weatherlink.com 1.10,2013-07-09 09:59:00,
2013-07-09 06:14:00,76.1,71.0,30.03,SE,126,1.0,3.0,84,0.00,,,0.00,weatherlink.com 1.10,2013-07-09 10:14:00,
2013-07-09 06:29:00,76.0,71.0,30.03,South,178,1.0,3.0,84,0.00,,,0.00,weatherlink.com 1.10,2013-07-09 10:29:00,
2013-07-09 06:44:00,76.1,71.0,30.03,South,178,0.0,2.0,85,0.00,,,0.00,weatherlink.com 1.10,2013-07-09 10:44:00,
2013-07-09 06:59:00,75.7,71.0,30.03,SSE,148,1.0,2.0,86,0.00,,,0.00,weatherlink.com 1.10,2013-07-09 10:59:00,
2013-07-09 07:14:00,75.4,72.0,30.03,South,182,0.0,2.0,88,0.00,,,0.00,weatherlink.com 1.10,2013-07-09 11:14:00,
2013-07-09 07:29:00,75.6,72.0,30.04,SSW,198,1.0,2.0,87,0.00,,,0.00,weatherlink.com 1.10,2013-07-09 11:29:00,
2013-07-09 07:44:00,76.5,72.0,30.04,SSW,198,1.0,1.0,86,0.00,,,0.00,weatherlink.com 1.10,2013-07-09 11:44:00,
2013-07-09 07:59:00,77.1,72.0,30.03,SE,137,0.0,3.0,84,0.00,,,0.00,weatherlink.com 1.10,2013-07-09 11:59:00,
2013-07-09 08:14:00,78.0,73.0,30.03,ESE,121,2.0,3.0,83,0.00,,,0.00,weatherlink.com 1.10,2013-07-09 12:14:00,
2013-07-09 08:29:00,79.1,72.0,30.02,SSE,163,3.0,5.0,80,0.00,,,0.00,weatherlink.com 1.10,2013-07-09 12:29:00,
2013-07-09 08:44:00,80.0,71.0,30.03,SSW,196,2.0,7.0,75,0.00,,,0.00,weatherlink.com 1.10,2013-07-09 12:44:00,
2013-07-09 08:59:00,80.9,72.0,30.03,South,180,2.0,8.0,74,0.00,,,0.00,weatherlink.com 1.10,2013-07-09 12:59:00,
2013-07-09 09:14:00,81.5,71.0,30.03,SSW,201,6.0,10.0,71,0.00,,,0.00,weatherlink.com 1.10,2013-07-09 13:14:00,
2013-07-09 09:29:00,81.4,72.0,30.03,SW,229,6.0,8.0,72,0.00,,,0.00,weatherlink.com 1.10,2013-07-09 13:29:00,
2013-07-09 09:44:00,81.8,71.0,30.03,SW,230,5.0,8.0,70,0.00,,,0.00,weatherlink.com 1.10,2013-07-09 13:44:00,
2013-07-09 09:59:00,82.2,72.0,30.02,SSW,205,8.0,11.0,71,0.00,,,0.00,weatherlink.com 1.10,2013-07-09 13:59:00,
2013-07-09 10:15:00,83.0,72.0,30.02,SW,233,4.0,11.0,70,0.00,,,0.00,weatherlink.com 1.10,2013-07-09 14:15:00,
2013-07-09 10:30:00,83.7,73.0,30.02,South,187,5.0,12.0,69,0.00,,,0.00,weatherlink.com 1.10,2013-07-09 14:30:00,
2013-07-09 10:45:00,84.1,72.0,30.02,SW,228,8.0,14.0,68,0.00,,,0.00,weatherlink.com 1.10,2013-07-09 14:45:00,
2013-07-09 11:00:00,84.8,73.0,30.02,SW,236,10.0,10.0,68,0.00,,,0.00,weatherlink.com 1.10,2013-07-09 15:00:00,
2013-07-09 11:15:00,85.4,74.0,30.02,SSW,195,6.0,14.0,68,0.00,,,0.00,weatherlink.com 1.10,2013-07-09 15:15:00,
2013-07-09 11:30:00,85.7,74.0,30.02,SSW,198,1.0,14.0,68,0.00,,,0.00,weatherlink.com 1.10,2013-07-09 15:30:00,
2013-07-09 11:45:00,86.3,74.0,30.01,SSW,198,4.0,10.0,67,0.00,,,0.00,weatherlink.com 1.10,2013-07-09 15:45:00,
2013-07-09 12:00:00,86.8,74.0,30.01,South,187,2.0,17.0,65,0.00,,,0.00,weatherlink.com 1.10,2013-07-09 16:00:00,
2013-07-09 12:15:00,87.4,74.0,30.01,SSW,194,3.0,12.0,65,0.00,,,0.00,weatherlink.com 1.10,2013-07-09 16:15:00,
2013-07-09 12:30:00,87.7,74.0,30.00,SW,233,7.0,11.0,63,0.00,,,0.00,weatherlink.com 1.10,2013-07-09 16:30:00,
2013-07-09 12:45:00,88.3,73.0,30.01,West,262,8.0,12.0,61,0.00,,,0.00,weatherlink.com 1.10,2013-07-09 16:45:00,
2013-07-09 13:00:00,88.6,73.0,30.00,South,180,7.0,17.0,61,0.00,,,0.00,weatherlink.com 1.10,2013-07-09 17:00:00,
2013-07-09 13:15:00,89.6,74.0,30.00,South,186,7.0,10.0,60,0.00,,,0.00,weatherlink.com 1.10,2013-07-09 17:15:00,
2013-07-09 13:30:00,89.1,73.0,30.00,WSW,244,7.0,18.0,59,0.00,,,0.00,weatherlink.com 1.10,2013-07-09 17:30:00,
2013-07-09 13:45:00,90.6,73.0,30.00,SSW,192,4.0,9.0,56,0.00,,,0.00,weatherlink.com 1.10,2013-07-09 17:45:00,
2013-07-09 14:00:00,89.9,73.0,29.99,SW,223,4.0,11.0,58,0.00,,,0.00,weatherlink.com 1.10,2013-07-09 18:00:00,
2013-07-09 14:15:00,89.2,73.0,30.00,South,183,4.0,12.0,59,0.00,,,0.00,weatherlink.com 1.10,2013-07-09 18:15:00,
2013-07-09 14:30:00,89.1,74.0,29.99,SSW,205,3.0,8.0,61,0.00,,,0.00,weatherlink.com 1.10,2013-07-09 18:30:00,
2013-07-09 14:45:00,89.2,74.0,29.98,South,190,3.0,13.0,61,0.00,,,0.00,weatherlink.com 1.10,2013-07-09 18:45:00,
2013-07-09 15:00:00,89.9,74.0,29.98,South,171,2.0,9.0,60,0.00,,,0.00,weatherlink.com 1.10,2013-07-09 19:00:00,
2013-07-09 15:15:00,85.0,70.0,29.98,South,176,3.0,12.0,60,0.00,,,0.00,weatherlink.com 1.10,2013-07-09 19:15:00,
2013-07-09 15:30:00,82.7,72.0,29.98,SE,138,1.0,8.0,70,0.00,,,0.00,weatherlink.com 1.10,2013-07-09 19:30:00,
2013-07-09 15:45:00,82.1,74.0,29.98,South,171,1.0,4.0,76,0.00,,,0.00,weatherlink.com 1.10,2013-07-09 19:45:00,
2013-07-09 16:00:00,81.7,75.0,29.96,South,179,1.0,5.0,79,0.00,,,0.00,weatherlink.com 1.10,2013-07-09 20:00:00,
2013-07-09 16:15:00,83.5,75.0,29.96,East,94,0.0,5.0,76,0.00,,,0.00,weatherlink.com 1.10,2013-07-09 20:15:00,
2013-07-09 16:30:00,85.3,76.0,29.96,SSE,148,1.0,4.0,73,0.00,,,0.00,weatherlink.com 1.10,2013-07-09 20:30:00,
2013-07-09 16:45:00,85.4,76.0,29.96,SSE,163,0.0,3.0,73,0.00,,,0.00,weatherlink.com 1.10,2013-07-09 20:45:00,
2013-07-09 17:00:00,86.1,77.0,29.95,SE,124,1.0,2.0,73,0.00,,,0.00,weatherlink.com 1.10,2013-07-09 21:00:00,
2013-07-09 17:15:00,85.7,77.0,29.96,SE,126,0.0,2.0,74,0.00,,,0.00,weatherlink.com 1.10,2013-07-09 21:15:00,
2013-07-09 17:30:00,86.1,77.0,29.95,SE,125,0.0,4.0,74,0.00,,,0.00,weatherlink.com 1.10,2013-07-09 21:30:00,
2013-07-09 17:45:00,86.2,77.0,29.96,SE,138,2.0,3.0,75,0.00,,,0.00,weatherlink.com 1.10,2013-07-09 21:45:00,
2013-07-09 18:00:00,86.3,77.0,29.95,SE,140,3.0,4.0,74,0.00,,,0.00,weatherlink.com 1.10,2013-07-09 22:00:00,
2013-07-09 18:15:00,86.9,76.0,29.96,SSE,156,1.0,6.0,71,0.00,,,0.00,weatherlink.com 1.10,2013-07-09 22:15:00,
2013-07-09 18:30:00,87.9,75.0,29.95,South,190,5.0,7.0,65,0.00,,,0.00,weatherlink.com 1.10,2013-07-09 22:30:00,
2013-07-09 18:45:00,87.8,74.0,29.95,South,171,3.0,6.0,64,0.00,,,0.00,weatherlink.com 1.10,2013-07-09 22:45:00,
2013-07-09 19:00:00,87.3,73.0,29.94,SSW,198,0.0,7.0,62,0.00,,,0.00,weatherlink.com 1.10,2013-07-09 23:00:00,
2013-07-09 19:15:00,87.1,73.0,29.94,South,186,3.0,6.0,63,0.00,,,0.00,weatherlink.com 1.10,2013-07-09 23:15:00,
2013-07-09 19:46:00,86.8,73.0,29.94,SSW,196,3.0,6.0,64,0.00,,,0.00,weatherlink.com 1.10,2013-07-09 23:46:00,
2013-07-09 20:01:00,86.9,74.0,29.94,SSE,167,1.0,3.0,65,0.00,,,0.00,weatherlink.com 1.10,2013-07-10 00:01:00,
2013-07-09 20:16:00,86.1,74.0,29.94,SSE,161,1.0,3.0,67,0.00,,,0.00,weatherlink.com 1.10,2013-07-10 00:16:00,
2013-07-09 20:31:00,85.6,74.0,29.95,SSE,161,2.0,2.0,68,0.00,,,0.00,weatherlink.com 1.10,2013-07-10 00:31:00,
2013-07-09 20:46:00,85.0,74.0,29.95,SSE,161,0.0,2.0,70,0.00,,,0.00,weatherlink.com 1.10,2013-07-10 00:46:00,
2013-07-09 21:01:00,84.6,74.0,29.95,SSE,149,1.0,3.0,71,0.00,,,0.00,weatherlink.com 1.10,2013-07-10 01:01:00,
2013-07-09 21:16:00,83.6,75.0,29.95,SSE,158,1.0,3.0,74,0.00,,,0.00,weatherlink.com 1.10,2013-07-10 01:16:00,
2013-07-09 21:31:00,82.5,75.0,29.95,SSE,158,0.0,2.0,78,0.00,,,0.00,weatherlink.com 1.10,2013-07-10 01:31:00,
2013-07-09 21:46:00,81.8,76.0,29.95,SSE,157,1.0,2.0,81,0.00,,,0.00,weatherlink.com 1.10,2013-07-10 01:46:00,
2013-07-09 22:01:00,81.1,76.0,29.95,SSE,157,0.0,2.0,83,0.00,,,0.00,weatherlink.com 1.10,2013-07-10 02:01:00,
2013-07-09 22:16:00,80.9,75.0,29.96,SSE,157,1.0,4.0,83,0.00,,,0.00,weatherlink.com 1.10,2013-07-10 02:16:00,
2013-07-09 22:31:00,80.6,75.0,29.96,SSE,157,0.0,2.0,84,0.00,,,0.00,weatherlink.com 1.10,2013-07-10 02:31:00,
2013-07-09 22:46:00,80.4,75.0,29.96,SSE,157,0.0,1.0,84,0.00,,,0.00,weatherlink.com 1.10,2013-07-10 02:46:00,
2013-07-09 23:01:00,79.8,75.0,29.96,SSE,158,1.0,3.0,85,0.00,,,0.00,weatherlink.com 1.10,2013-07-10 03:01:00,
2013-07-09 23:16:00,79.6,75.0,29.96,SSE,158,2.0,3.0,85,0.00,,,0.00,weatherlink.com 1.10,2013-07-10 03:16:00,
2013-07-09 23:31:00,79.6,74.0,29.96,SE,144,0.0,3.0,84,0.00,,,0.00,weatherlink.com 1.10,2013-07-10 03:31:00,
2013-07-09 23:46:00,79.7,74.0,29.95,SE,145,2.0,4.0,83,0.00,,,0.00,weatherlink.com 1.10,2013-07-10 03:46:00,